LEGE/GRO METAR and TAF weather

Enter ICAO airport designator
Station Type Date Time Source
LEGE METAR 2022/05/23 13:30 UTC NOAA

LEGE 231330Z 19009KT 130V240 9999 FEW040 26/15 Q1006


Station Type Date Time Source
LEGE Decoded METAR 2022/05/23 13:30 UTC NOAA

Gerona / Costa Brava, Spain (LEGE) 41-54N 002-46E 129M
May 23, 2022 - 09:30 AM EDT / 2022.05.23 1330 UTC
Wind: from the S (190 degrees) at 10 MPH (9 KT) (direction variable):0
Visibility: greater than 7 mile(s):0
Sky conditions: mostly clear
Temperature: 78 F (26 C)
Dew Point: 59 F (15 C)
Relative Humidity: 50%
Pressure (altimeter): 29.71 in. Hg (1006 hPa)
ob: LEGE 231330Z 19009KT 130V240 9999 FEW040 26/15 Q1006
cycle: 13

Station Type Date Time Source
LEGE TAF 2022/05/23 12:27 UTC NOAA

TAF LEGE 231100Z 2312/2412 11007KT CAVOK TX31/2314Z TN14/2406Z
TEMPO 2312/2315 17010KT
BECMG 2318/2320 VRB03KT
BECMG 2403/2406 04008KT PROB40
TEMPO 2406/2412 TSRA FEW040CB

Example: see airport list